createdAt,value
2018-06-09T00:00:31.402Z,12.30
2018-06-09T00:01:31.392Z,12.00
2018-06-09T00:02:31.387Z,12.70
2018-06-09T00:03:31.383Z,12.90
2018-06-09T00:04:31.384Z,11.20
2018-06-09T00:05:31.376Z,12.40
2018-06-09T00:06:31.372Z,12.50
2018-06-09T00:07:31.369Z,12.60
2018-06-09T00:08:31.365Z,12.20
2018-06-09T00:09:31.365Z,11.50
2018-06-09T00:10:31.362Z,12.80
2018-06-09T00:11:31.369Z,11.20
2018-06-09T00:12:31.350Z,12.70
2018-06-09T00:13:31.348Z,12.70
2018-06-09T00:14:31.343Z,12.60
2018-06-09T00:15:31.340Z,12.90
2018-06-09T00:16:31.337Z,12.10
2018-06-09T00:17:31.333Z,12.50
2018-06-09T00:18:31.329Z,12.40
2018-06-09T00:19:31.331Z,13.50
2018-06-09T00:20:31.323Z,13.00
2018-06-09T00:21:31.320Z,12.70
2018-06-09T00:22:31.314Z,13.10
2018-06-09T00:23:31.312Z,14.30
2018-06-09T00:24:31.308Z,13.00
2018-06-09T00:25:31.308Z,13.70
2018-06-09T00:26:31.300Z,14.30
2018-06-09T00:27:31.300Z,13.40
2018-06-09T00:28:31.294Z,13.20
2018-06-09T00:29:31.294Z,12.20
2018-06-09T00:30:31.286Z,14.10
2018-06-09T00:31:31.283Z,13.90
2018-06-09T00:32:31.279Z,12.20
2018-06-09T00:33:31.276Z,13.10
2018-06-09T00:34:31.272Z,13.50
2018-06-09T00:35:31.269Z,13.70
2018-06-09T00:36:31.266Z,14.10
2018-06-09T00:37:31.262Z,13.60
2018-06-09T00:38:31.258Z,13.10
2018-06-09T00:39:31.256Z,13.80
2018-06-09T00:40:31.252Z,14.00
2018-06-09T00:41:31.248Z,14.20
2018-06-09T00:42:31.253Z,14.10
2018-06-09T00:43:31.250Z,14.70
2018-06-09T00:44:31.247Z,14.80
2018-06-09T00:45:31.245Z,13.40
2018-06-09T00:46:31.241Z,13.20
2018-06-09T00:47:31.240Z,11.80
2018-06-09T00:48:31.238Z,14.50
2018-06-09T00:49:31.230Z,15.10
2018-06-09T00:50:31.226Z,13.80
2018-06-09T00:51:31.222Z,13.70
2018-06-09T00:52:31.220Z,14.10
2018-06-09T00:53:31.217Z,14.20
2018-06-09T00:54:31.213Z,15.10
2018-06-09T00:55:31.211Z,15.10
2018-06-09T00:56:31.207Z,13.90
2018-06-09T00:57:31.405Z,13.60
2018-06-09T00:58:31.200Z,14.30
2018-06-09T00:59:31.195Z,14.70
2018-06-09T01:00:31.192Z,13.80
2018-06-09T01:01:31.193Z,15.20
2018-06-09T01:02:31.185Z,14.70
2018-06-09T01:03:31.185Z,13.80
2018-06-09T01:04:31.181Z,14.50
2018-06-09T01:05:31.175Z,14.10
2018-06-09T01:06:31.171Z,14.60
2018-06-09T01:07:31.169Z,14.40
2018-06-09T01:08:31.160Z,14.50
2018-06-09T01:09:31.158Z,14.80
2018-06-09T01:10:31.356Z,15.10
2018-06-09T01:11:31.150Z,14.70
2018-06-09T01:12:31.147Z,13.10
2018-06-09T01:13:31.143Z,14.80
2018-06-09T01:14:31.142Z,14.60
2018-06-09T01:15:31.139Z,15.70
2018-06-09T01:16:31.137Z,14.60
2018-06-09T01:17:31.132Z,14.20
2018-06-09T01:18:31.130Z,14.40
2018-06-09T01:19:31.124Z,14.30
2018-06-09T01:20:31.123Z,15.60
2018-06-09T01:21:31.118Z,14.80
2018-06-09T01:22:31.113Z,14.10
2018-06-09T01:23:31.110Z,15.70
2018-06-09T01:24:31.107Z,14.50
2018-06-09T01:25:31.103Z,14.50
2018-06-09T01:26:31.100Z,13.60
2018-06-09T01:27:31.097Z,14.20
2018-06-09T01:28:31.094Z,14.70
2018-06-09T01:29:31.091Z,15.10
2018-06-09T01:30:31.087Z,15.60
2018-06-09T01:31:31.083Z,14.50
2018-06-09T01:32:31.080Z,14.30
2018-06-09T01:33:31.077Z,15.00
2018-06-09T01:34:31.073Z,13.90
2018-06-09T01:35:31.072Z,14.40
2018-06-09T01:36:31.071Z,14.70
2018-06-09T01:37:31.060Z,14.10
2018-06-09T01:39:31.046Z,15.20
2018-06-09T01:40:31.043Z,13.30
2018-06-09T01:41:31.040Z,15.60
2018-06-09T01:42:31.035Z,14.70
2018-06-09T01:43:31.032Z,14.40
2018-06-09T01:44:31.030Z,14.50
2018-06-09T01:45:31.026Z,14.10
2018-06-09T01:46:31.022Z,14.00
2018-06-09T01:47:31.021Z,14.80
2018-06-09T01:48:31.016Z,15.60
2018-06-09T01:49:31.013Z,12.60
2018-06-09T01:50:31.009Z,16.40
2018-06-09T01:51:31.006Z,15.40
2018-06-09T01:52:31.003Z,14.50
2018-06-09T01:53:30.999Z,15.50
2018-06-09T01:54:30.998Z,16.60
2018-06-09T01:55:30.993Z,15.30
2018-06-09T01:56:30.989Z,15.70
2018-06-09T01:57:30.989Z,15.60
2018-06-09T01:58:30.983Z,15.20
2018-06-09T01:59:30.979Z,14.50
2018-06-09T02:00:30.977Z,13.90
2018-06-09T02:01:30.973Z,15.20
2018-06-09T02:02:30.968Z,14.60
2018-06-09T02:03:30.966Z,15.50
2018-06-09T02:04:30.963Z,14.70
2018-06-09T02:05:30.960Z,14.80
2018-06-09T02:06:30.955Z,14.20
2018-06-09T02:07:30.952Z,14.60
2018-06-09T02:08:30.949Z,14.00
2018-06-09T02:09:30.946Z,14.50
2018-06-09T02:10:30.942Z,15.40
2018-06-09T02:11:30.939Z,14.90
2018-06-09T02:12:30.941Z,14.80
2018-06-09T02:13:30.936Z,13.80
2018-06-09T02:14:30.935Z,14.70
2018-06-09T02:15:30.927Z,14.70
2018-06-09T02:16:30.922Z,13.50
2018-06-09T02:17:30.920Z,13.90
2018-06-09T02:18:30.915Z,13.80
2018-06-09T02:19:30.912Z,14.10
2018-06-09T02:20:30.908Z,15.10
2018-06-09T02:21:30.905Z,15.60
2018-06-09T02:22:30.906Z,12.60
2018-06-09T02:23:30.898Z,14.90
2018-06-09T02:24:30.895Z,14.90
2018-06-09T02:25:30.894Z,14.20
2018-06-09T02:26:30.887Z,14.90
2018-06-09T02:27:30.885Z,13.80
2018-06-09T02:28:30.880Z,14.60
2018-06-09T02:29:30.877Z,13.10
2018-06-09T02:30:30.890Z,14.00
2018-06-09T02:31:30.871Z,14.70
2018-06-09T02:32:30.867Z,13.20
2018-06-09T02:33:30.864Z,13.90
2018-06-09T02:34:30.859Z,14.20
2018-06-09T02:35:30.855Z,14.00
2018-06-09T02:36:30.853Z,14.30
2018-06-09T02:37:30.849Z,13.70
2018-06-09T02:38:30.845Z,14.90
2018-06-09T02:39:30.842Z,15.10
2018-06-09T02:40:30.839Z,13.70
2018-06-09T02:41:30.838Z,13.80
2018-06-09T02:42:30.833Z,13.70
2018-06-09T02:43:30.827Z,13.70
2018-06-09T02:44:30.826Z,14.90
2018-06-09T02:45:30.821Z,13.00
2018-06-09T02:46:30.816Z,13.40
2018-06-09T02:47:30.812Z,13.30
2018-06-09T02:48:30.810Z,15.00
2018-06-09T02:49:30.806Z,14.50
2018-06-09T02:50:30.807Z,14.10
2018-06-09T02:51:30.803Z,13.60
2018-06-09T02:52:30.796Z,14.20
2018-06-09T02:53:30.792Z,14.20
2018-06-09T02:54:30.788Z,13.10
2018-06-09T02:55:30.784Z,13.70
2018-06-09T02:56:30.782Z,13.90
2018-06-09T02:57:30.779Z,14.90
2018-06-09T02:58:30.774Z,13.60
2018-06-09T02:59:30.771Z,12.60
2018-06-09T03:00:30.772Z,14.60
2018-06-09T03:01:30.766Z,14.30
2018-06-09T03:02:30.759Z,13.90
2018-06-09T03:03:30.756Z,14.60
2018-06-09T03:04:30.754Z,14.00
2018-06-09T03:05:30.749Z,13.80
2018-06-09T03:06:30.745Z,13.10
2018-06-09T03:07:30.741Z,13.00
2018-06-09T03:08:30.738Z,13.00
2018-06-09T03:09:30.737Z,15.00
2018-06-09T03:10:30.735Z,14.00
2018-06-09T03:11:30.727Z,13.80
2018-06-09T03:12:30.725Z,15.30
2018-06-09T03:13:30.721Z,13.80
2018-06-09T03:14:30.715Z,14.20
2018-06-09T03:15:30.712Z,13.60
2018-06-09T03:16:30.710Z,13.70
2018-06-09T03:17:30.705Z,14.70
2018-06-09T03:18:30.701Z,15.60
2018-06-09T03:19:30.706Z,13.70
2018-06-09T03:20:30.696Z,15.70
2018-06-09T03:21:30.692Z,14.10
2018-06-09T03:22:30.690Z,14.30
2018-06-09T03:23:30.683Z,14.60
2018-06-09T03:24:30.679Z,13.70
2018-06-09T03:25:30.678Z,14.00
2018-06-09T03:26:30.672Z,15.30
2018-06-09T03:27:30.668Z,14.80
2018-06-09T03:28:30.665Z,13.80
2018-06-09T03:29:30.661Z,13.40
2018-06-09T03:30:30.658Z,13.80
2018-06-09T03:31:30.656Z,13.70
2018-06-09T03:32:30.691Z,15.30
2018-06-09T03:33:30.646Z,12.80
2018-06-09T03:34:30.642Z,13.60
2018-06-09T03:35:30.638Z,14.10
2018-06-09T03:36:30.635Z,13.80
2018-06-09T03:37:30.640Z,14.10
2018-06-09T03:38:30.627Z,14.30
2018-06-09T03:39:30.632Z,13.20
2018-06-09T03:40:30.620Z,13.40
2018-06-09T03:42:30.611Z,14.40
2018-06-09T03:43:30.811Z,13.60
2018-06-09T03:44:30.609Z,13.80
2018-06-09T03:45:30.601Z,12.80
2018-06-09T03:46:30.598Z,13.30
2018-06-09T03:47:30.594Z,13.00
2018-06-09T03:48:30.592Z,12.70
2018-06-09T03:49:30.589Z,12.10
2018-06-09T03:50:30.605Z,12.20
2018-06-09T03:51:30.579Z,11.80
2018-06-09T03:52:30.581Z,11.30
2018-06-09T03:53:30.574Z,11.40
2018-06-09T03:54:30.567Z,12.50
2018-06-09T03:55:30.565Z,12.70
2018-06-09T03:56:30.560Z,11.40
2018-06-09T03:57:30.759Z,13.40
2018-06-09T03:58:30.556Z,11.10
2018-06-09T03:59:30.550Z,10.80
2018-06-09T04:00:30.545Z,12.10
2018-06-09T04:01:30.545Z,12.10
2018-06-09T04:02:30.537Z,12.10
2018-06-09T04:03:30.534Z,10.80
2018-06-09T04:04:30.535Z,12.50
2018-06-09T04:05:30.527Z,12.40
2018-06-09T04:06:30.522Z,11.40
2018-06-09T04:07:30.519Z,12.20
2018-06-09T04:08:30.518Z,11.20
2018-06-09T04:09:30.511Z,11.40
2018-06-09T04:10:30.512Z,10.50
2018-06-09T04:11:30.508Z,11.60
2018-06-09T04:12:30.500Z,11.60
2018-06-09T04:13:30.495Z,10.90
2018-06-09T04:14:30.491Z,11.60
2018-06-09T04:16:30.483Z,11.30
2018-06-09T04:17:30.486Z,10.30
2018-06-09T04:18:30.475Z,10.80
2018-06-09T04:19:30.478Z,11.10
2018-06-09T04:20:30.477Z,10.40
2018-06-09T04:21:30.469Z,11.00
2018-06-09T04:22:30.461Z,10.20
2018-06-09T04:23:30.463Z,11.40
2018-06-09T04:24:30.456Z,11.20
2018-06-09T04:25:30.450Z,10.60
2018-06-09T04:26:30.447Z,11.10
2018-06-09T04:27:30.442Z,11.80
2018-06-09T04:28:30.438Z,10.70
2018-06-09T04:29:30.434Z,10.20
2018-06-09T04:30:30.430Z,10.50
2018-06-09T04:31:30.428Z,11.20
2018-06-09T04:32:30.427Z,10.60
2018-06-09T04:33:30.420Z,11.00
2018-06-09T04:34:30.417Z,11.00
2018-06-09T04:35:30.412Z,10.70
2018-06-09T04:36:30.409Z,11.90
2018-06-09T04:37:30.404Z,11.50
2018-06-09T04:38:30.401Z,11.60
2018-06-09T04:39:30.397Z,11.20
2018-06-09T04:40:30.393Z,12.30
2018-06-09T04:41:30.393Z,11.40
2018-06-09T04:42:30.386Z,12.80
2018-06-09T04:43:30.386Z,10.40
2018-06-09T04:44:30.379Z,10.50
2018-06-09T04:45:30.375Z,11.60
2018-06-09T04:46:30.371Z,11.10
2018-06-09T04:47:30.369Z,11.50
2018-06-09T04:48:30.370Z,10.40
2018-06-09T04:49:30.365Z,11.30
2018-06-09T04:50:30.356Z,10.70
2018-06-09T04:51:30.355Z,12.10
2018-06-09T04:52:30.354Z,11.40
2018-06-09T04:53:30.349Z,12.40
2018-06-09T04:54:30.349Z,11.40
2018-06-09T04:55:30.338Z,12.20
2018-06-09T04:56:30.339Z,10.10
2018-06-09T04:57:30.534Z,11.50
2018-06-09T04:58:30.337Z,12.00
2018-06-09T04:59:30.325Z,10.80
2018-06-09T05:00:30.327Z,11.00
2018-06-09T05:01:30.320Z,10.30
2018-06-09T05:02:30.313Z,11.20
2018-06-09T05:03:30.314Z,10.80
2018-06-09T05:04:30.306Z,11.10
2018-06-09T05:05:30.306Z,10.90
2018-06-09T05:06:30.300Z,11.60
2018-06-09T05:07:30.296Z,11.50
2018-06-09T05:08:30.494Z,11.30
2018-06-09T05:09:30.288Z,10.30
2018-06-09T05:10:30.288Z,10.70
2018-06-09T05:11:30.280Z,10.60
2018-06-09T05:12:30.279Z,10.90
2018-06-09T05:13:30.276Z,11.10
2018-06-09T05:14:30.278Z,11.10
2018-06-09T05:15:30.271Z,12.40
2018-06-09T05:16:30.263Z,10.60
2018-06-09T05:17:30.464Z,11.00
2018-06-09T05:18:30.255Z,11.40
2018-06-09T05:19:30.252Z,10.70
2018-06-09T05:20:30.249Z,10.70
2018-06-09T05:21:30.245Z,11.10
2018-06-09T05:22:30.248Z,11.60
2018-06-09T05:23:30.237Z,9.80
2018-06-09T05:24:30.238Z,10.20
2018-06-09T05:25:30.230Z,11.40
2018-06-09T05:26:30.227Z,10.00
2018-06-09T05:27:30.223Z,10.30
2018-06-09T05:28:30.221Z,10.80
2018-06-09T05:30:30.211Z,11.10
2018-06-09T05:31:30.208Z,9.90
2018-06-09T05:32:30.205Z,11.40
2018-06-09T05:33:30.202Z,10.30
2018-06-09T05:34:30.198Z,10.90
2018-06-09T05:35:30.198Z,10.40
2018-06-09T05:36:30.191Z,11.70
2018-06-09T05:37:30.187Z,10.10
2018-06-09T05:38:30.389Z,11.60
2018-06-09T05:39:30.179Z,11.30
2018-06-09T05:40:30.183Z,11.10
2018-06-09T05:41:30.178Z,11.50
2018-06-09T05:42:30.169Z,11.60
2018-06-09T05:43:30.166Z,11.50
2018-06-09T05:44:30.163Z,10.80
2018-06-09T05:45:30.159Z,12.10
2018-06-09T05:46:30.155Z,10.50
2018-06-09T05:47:30.155Z,11.60
2018-06-09T05:48:30.151Z,10.60
2018-06-09T05:49:30.400Z,10.90
2018-06-09T05:50:30.140Z,10.50
2018-06-09T05:51:30.137Z,11.20
2018-06-09T05:52:30.138Z,10.80
2018-06-09T05:53:30.134Z,11.40
2018-06-09T05:54:30.126Z,12.50
2018-06-09T05:55:30.167Z,10.90
2018-06-09T05:56:30.123Z,11.20
2018-06-09T05:57:30.123Z,11.60
2018-06-09T05:58:30.316Z,11.50
2018-06-09T05:59:30.111Z,12.40
2018-06-09T06:00:30.106Z,11.30
2018-06-09T06:01:30.104Z,10.90
2018-06-09T06:02:30.104Z,12.30
2018-06-09T06:03:30.096Z,11.20
2018-06-09T06:04:30.296Z,10.90
2018-06-09T06:05:30.096Z,10.90
2018-06-09T06:06:30.086Z,9.90
2018-06-09T06:07:30.085Z,11.10
2018-06-09T06:08:30.082Z,10.70
2018-06-09T06:09:30.079Z,10.20
2018-06-09T06:10:30.075Z,12.60
2018-06-09T06:11:30.069Z,11.60
2018-06-09T06:12:30.071Z,11.50
2018-06-09T06:13:30.064Z,11.60
2018-06-09T06:14:30.064Z,12.80
2018-06-09T06:15:30.059Z,13.20
2018-06-09T06:16:30.256Z,12.40
2018-06-09T06:17:30.052Z,11.70
2018-06-09T06:18:30.057Z,12.00
2018-06-09T06:19:30.047Z,12.70
2018-06-09T06:20:30.046Z,12.20
2018-06-09T06:21:30.044Z,10.90
2018-06-09T06:22:30.039Z,10.90
2018-06-09T06:23:30.044Z,11.50
2018-06-09T06:24:30.032Z,11.30
2018-06-09T06:25:30.031Z,10.90
2018-06-09T06:26:30.033Z,10.30
2018-06-09T06:27:30.030Z,10.70
2018-06-09T06:28:30.022Z,10.90
2018-06-09T06:29:30.024Z,11.30
2018-06-09T06:30:30.016Z,11.10
2018-06-09T06:31:30.020Z,10.70
2018-06-09T06:32:30.011Z,10.90
2018-06-09T06:33:30.009Z,11.50
2018-06-09T06:34:30.010Z,11.50
2018-06-09T06:35:30.002Z,10.90
2018-06-09T06:36:29.998Z,11.90
2018-06-09T06:37:29.996Z,10.80
2018-06-09T06:38:29.992Z,11.30
2018-06-09T06:39:29.989Z,12.00
2018-06-09T06:40:29.993Z,11.40
2018-06-09T06:41:29.985Z,13.30
2018-06-09T06:42:29.982Z,12.20
2018-06-09T06:43:29.982Z,11.80
2018-06-09T06:44:29.979Z,12.10
2018-06-09T06:45:30.176Z,13.70
2018-06-09T06:46:29.974Z,11.50
2018-06-09T06:47:29.969Z,11.60
2018-06-09T06:48:29.968Z,11.50
2018-06-09T06:49:29.967Z,12.80
2018-06-09T06:50:29.966Z,12.70
2018-06-09T06:51:29.963Z,13.30
2018-06-09T06:52:29.954Z,11.60
2018-06-09T06:53:29.953Z,12.80
2018-06-09T06:54:29.953Z,13.00
2018-06-09T06:55:29.949Z,12.00
2018-06-09T06:56:29.946Z,12.00
2018-06-09T06:57:29.942Z,13.30
2018-06-09T06:58:29.940Z,13.80
2018-06-09T06:59:29.936Z,15.00
2018-06-09T07:00:29.935Z,15.70
2018-06-09T07:01:29.936Z,17.40
2018-06-09T07:02:29.931Z,15.30
2018-06-09T07:03:29.924Z,14.80
2018-06-09T07:04:29.924Z,15.70
2018-06-09T07:05:29.927Z,14.30
2018-06-09T07:06:29.917Z,14.70
2018-06-09T07:07:29.914Z,14.00
2018-06-09T07:08:29.912Z,15.50
2018-06-09T07:09:29.909Z,14.30
2018-06-09T07:10:29.907Z,14.10
2018-06-09T07:11:29.906Z,15.50
2018-06-09T07:12:29.903Z,15.70
2018-06-09T07:13:29.926Z,16.00
2018-06-09T07:15:29.895Z,17.30
2018-06-09T07:16:29.894Z,15.90
2018-06-09T07:17:29.890Z,16.30
2018-06-09T07:18:29.892Z,15.90
2018-06-09T07:19:29.885Z,15.10
2018-06-09T07:20:29.883Z,15.50
2018-06-09T07:21:29.880Z,15.40
2018-06-09T07:22:29.877Z,15.20
2018-06-09T07:23:29.876Z,14.30
2018-06-09T07:24:29.875Z,15.80
2018-06-09T07:25:29.875Z,17.00
2018-06-09T07:26:29.870Z,15.80
2018-06-09T07:27:29.868Z,17.00
2018-06-09T07:28:29.867Z,16.70
2018-06-09T07:29:29.866Z,15.30
2018-06-09T07:30:29.862Z,16.00
2018-06-09T07:31:29.861Z,15.70
2018-06-09T07:32:29.859Z,14.60
2018-06-09T07:33:29.863Z,17.70
2018-06-09T07:34:29.858Z,13.80
2018-06-09T07:35:29.854Z,15.90
2018-06-09T07:36:29.853Z,15.30
2018-06-09T07:37:29.854Z,15.50
2018-06-09T07:38:29.853Z,16.60
2018-06-09T07:39:29.852Z,15.60
2018-06-09T07:40:29.847Z,14.70
2018-06-09T07:41:29.849Z,14.80
2018-06-09T07:42:29.854Z,14.90
2018-06-09T07:43:29.845Z,16.70
2018-06-09T07:44:29.850Z,14.60
2018-06-09T07:45:29.846Z,16.60
2018-06-09T07:46:29.839Z,14.40
2018-06-09T07:47:30.043Z,15.40
2018-06-09T07:48:29.844Z,16.10
2018-06-09T07:49:29.840Z,16.10
2018-06-09T07:50:29.837Z,15.10
2018-06-09T07:51:29.836Z,16.90
2018-06-09T07:52:29.833Z,18.00
2018-06-09T07:53:29.832Z,14.90
2018-06-09T07:54:29.835Z,17.20
2018-06-09T07:55:29.847Z,16.50
2018-06-09T07:56:29.830Z,18.20
2018-06-09T07:57:29.831Z,17.10
2018-06-09T07:58:29.828Z,17.20
2018-06-09T07:59:29.840Z,17.30
2018-06-09T08:00:29.831Z,16.60
2018-06-09T08:01:29.826Z,16.70
2018-06-09T08:02:29.828Z,16.70
2018-06-09T08:03:29.824Z,16.40
2018-06-09T08:04:29.824Z,16.90
2018-06-09T08:05:29.830Z,16.50
2018-06-09T08:06:29.826Z,16.90
2018-06-09T08:07:29.824Z,16.50
2018-06-09T08:08:29.825Z,18.20
2018-06-09T08:09:29.825Z,16.50
2018-06-09T08:10:29.820Z,17.70
2018-06-09T08:11:29.821Z,17.80
2018-06-09T08:12:29.826Z,16.80
2018-06-09T08:13:29.823Z,17.40
2018-06-09T08:14:29.818Z,17.30
2018-06-09T08:15:29.820Z,17.60
2018-06-09T08:16:29.820Z,18.00
2018-06-09T08:17:29.819Z,15.60
2018-06-09T08:18:29.819Z,19.40
2018-06-09T08:19:29.884Z,16.80
2018-06-09T08:20:29.817Z,17.00
2018-06-09T08:21:29.820Z,17.00
2018-06-09T08:22:29.818Z,16.30
2018-06-09T08:23:29.817Z,18.80
2018-06-09T08:24:29.815Z,17.80
2018-06-09T08:25:29.822Z,17.30
2018-06-09T08:26:29.814Z,16.60
2018-06-09T08:27:29.816Z,18.40
2018-06-09T08:28:29.815Z,18.00
2018-06-09T08:29:29.822Z,18.70
2018-06-09T08:30:29.816Z,16.70
2018-06-09T08:31:29.816Z,16.20
2018-06-09T08:32:29.814Z,18.40
2018-06-09T08:33:29.814Z,19.70
2018-06-09T08:34:29.814Z,17.50
2018-06-09T08:35:29.814Z,17.00
2018-06-09T08:36:29.845Z,15.70
2018-06-09T08:37:29.820Z,17.10
2018-06-09T08:38:30.017Z,18.40
2018-06-09T08:39:29.814Z,15.70
2018-06-09T08:40:29.814Z,18.50
2018-06-09T08:41:29.815Z,17.20
2018-06-09T08:43:29.815Z,17.90
2018-06-09T08:44:29.816Z,17.50
2018-06-09T08:45:29.813Z,16.60
2018-06-09T08:46:29.816Z,18.00
2018-06-09T08:47:29.817Z,17.30
2018-06-09T08:48:29.812Z,17.80
2018-06-09T08:49:29.816Z,17.90
2018-06-09T08:50:29.814Z,15.50
2018-06-09T08:51:29.816Z,16.10
2018-06-09T08:52:29.812Z,17.80
2018-06-09T08:53:29.817Z,18.50
2018-06-09T08:54:29.819Z,17.50
2018-06-09T08:55:30.017Z,17.50
2018-06-09T08:56:29.815Z,19.10
2018-06-09T08:57:29.815Z,17.30
2018-06-09T08:58:29.815Z,18.10
2018-06-09T08:59:29.811Z,17.70
2018-06-09T09:00:29.815Z,17.20
2018-06-09T09:01:29.810Z,17.10
2018-06-09T09:02:30.015Z,17.70
2018-06-09T09:03:29.810Z,18.50
2018-06-09T09:04:29.810Z,15.80
2018-06-09T09:05:29.813Z,19.00
2018-06-09T09:06:29.815Z,17.10
2018-06-09T09:07:29.810Z,17.30
2018-06-09T09:08:29.818Z,18.00
2018-06-09T09:09:29.812Z,17.00
2018-06-09T09:10:29.817Z,17.70
2018-06-09T09:11:29.816Z,18.30
2018-06-09T09:12:29.820Z,16.80
2018-06-09T09:13:29.818Z,17.30
2018-06-09T09:14:29.815Z,18.70
2018-06-09T09:15:29.819Z,17.20
2018-06-09T09:16:29.833Z,17.40
2018-06-09T09:17:29.825Z,16.60
2018-06-09T09:18:29.821Z,15.50
2018-06-09T09:19:29.828Z,17.20
2018-06-09T09:20:29.822Z,17.40
2018-06-09T09:21:29.823Z,17.90
2018-06-09T09:22:29.824Z,17.30
2018-06-09T09:23:29.832Z,16.70
2018-06-09T09:24:29.836Z,17.90
2018-06-09T09:25:29.833Z,17.90
2018-06-09T09:26:29.837Z,15.30
2018-06-09T09:27:29.840Z,16.80
2018-06-09T09:28:29.846Z,17.20
2018-06-09T09:29:29.848Z,15.90
2018-06-09T09:30:29.850Z,17.60
2018-06-09T09:31:29.851Z,16.80
2018-06-09T09:32:29.855Z,18.20
2018-06-09T09:33:29.861Z,17.10
2018-06-09T09:34:29.865Z,17.00
2018-06-09T09:35:29.874Z,15.40
2018-06-09T09:36:30.073Z,16.80
2018-06-09T09:37:29.872Z,17.10
2018-06-09T09:38:29.875Z,15.60
2018-06-09T09:39:29.881Z,16.10
2018-06-09T09:40:29.887Z,17.60
2018-06-09T09:41:29.890Z,16.80
2018-06-09T09:42:29.896Z,15.90
2018-06-09T09:43:29.899Z,16.10
2018-06-09T09:44:29.905Z,18.10
2018-06-09T09:45:29.910Z,17.40
2018-06-09T09:46:30.112Z,16.50
2018-06-09T09:47:29.913Z,17.30
2018-06-09T09:48:29.917Z,15.80
2018-06-09T09:49:29.924Z,16.90
2018-06-09T09:50:29.924Z,16.30
2018-06-09T09:51:29.930Z,16.20
2018-06-09T09:52:29.932Z,16.40
2018-06-09T09:53:29.938Z,17.20
2018-06-09T09:54:29.939Z,17.90
2018-06-09T09:55:30.149Z,17.00
2018-06-09T09:56:29.955Z,15.70
2018-06-09T09:57:29.952Z,16.20
2018-06-09T09:58:29.959Z,16.00
2018-06-09T09:59:29.962Z,15.60
2018-06-09T10:00:29.970Z,16.40
2018-06-09T10:01:29.976Z,15.90
2018-06-09T10:02:29.981Z,17.30
2018-06-09T10:03:29.986Z,15.80
2018-06-09T10:04:30.193Z,14.70
2018-06-09T10:05:29.997Z,16.40
2018-06-09T10:06:30.008Z,16.10
2018-06-09T10:07:30.018Z,16.40
2018-06-09T10:08:30.016Z,16.30
2018-06-09T10:09:30.028Z,16.00
2018-06-09T10:10:30.027Z,15.10
2018-06-09T10:11:30.037Z,15.20
2018-06-09T10:12:30.043Z,14.80
2018-06-09T10:13:30.048Z,16.90
2018-06-09T10:14:30.064Z,17.20
2018-06-09T10:15:30.061Z,18.00
2018-06-09T10:16:30.063Z,17.10
2018-06-09T10:17:30.068Z,18.20
2018-06-09T10:18:30.070Z,16.90
2018-06-09T10:19:30.072Z,17.10
2018-06-09T10:20:30.081Z,18.40
2018-06-09T10:21:30.081Z,16.70
2018-06-09T10:22:30.086Z,18.40
2018-06-09T10:23:30.091Z,15.30
2018-06-09T10:24:30.100Z,16.30
2018-06-09T10:25:30.104Z,14.60
2018-06-09T10:26:30.109Z,14.40
2018-06-09T10:27:30.116Z,16.80
2018-06-09T10:28:30.124Z,17.50
2018-06-09T10:29:30.130Z,16.20
2018-06-09T10:30:30.134Z,16.30
2018-06-09T10:31:30.141Z,16.90
2018-06-09T10:32:30.143Z,15.70
2018-06-09T10:33:30.148Z,16.10
2018-06-09T10:34:30.154Z,17.10
2018-06-09T10:35:30.156Z,15.90
2018-06-09T10:36:30.161Z,16.60
2018-06-09T10:37:30.165Z,16.30
2018-06-09T10:38:30.169Z,16.50
2018-06-09T10:39:30.175Z,16.20
2018-06-09T10:40:30.181Z,15.40
2018-06-09T10:41:30.192Z,15.40
2018-06-09T10:42:30.192Z,15.70
2018-06-09T10:43:30.197Z,16.90
2018-06-09T10:44:30.207Z,17.90
2018-06-09T10:45:30.212Z,17.00
2018-06-09T10:46:30.212Z,17.20
2018-06-09T10:47:30.218Z,17.00
2018-06-09T10:48:30.225Z,14.70
2018-06-09T10:49:30.230Z,16.20
2018-06-09T10:50:30.230Z,16.10
2018-06-09T10:51:30.236Z,15.40
2018-06-09T10:52:30.241Z,15.60
2018-06-09T10:53:30.247Z,16.40
2018-06-09T10:54:30.248Z,17.00
2018-06-09T10:55:30.254Z,17.30
2018-06-09T10:56:30.258Z,16.30
2018-06-09T10:57:30.293Z,16.50
2018-06-09T10:58:30.267Z,15.00
2018-06-09T10:59:30.272Z,14.00
2018-06-09T11:00:30.276Z,16.00
2018-06-09T11:01:30.281Z,14.60
2018-06-09T11:02:30.286Z,15.80
2018-06-09T11:03:30.294Z,16.00
2018-06-09T11:04:30.294Z,14.70
2018-06-09T11:05:30.300Z,16.40
2018-06-09T11:06:30.301Z,16.50
2018-06-09T11:07:30.308Z,17.00
2018-06-09T11:08:30.311Z,17.70
2018-06-09T11:09:30.315Z,16.40
2018-06-09T11:10:30.319Z,16.10
2018-06-09T11:11:30.328Z,15.30
2018-06-09T11:12:30.531Z,16.70
2018-06-09T11:13:30.333Z,15.20
2018-06-09T11:14:30.337Z,16.20
2018-06-09T11:15:30.342Z,17.20
2018-06-09T11:16:30.352Z,15.70
2018-06-09T11:17:30.356Z,16.60
2018-06-09T11:18:30.355Z,16.40
2018-06-09T11:19:30.365Z,14.70
2018-06-09T11:20:30.569Z,16.80
2018-06-09T11:21:30.371Z,16.20
2018-06-09T11:22:30.375Z,15.00
2018-06-09T11:23:30.584Z,15.00
2018-06-09T11:24:30.622Z,15.00
2018-06-09T11:25:30.390Z,16.80
2018-06-09T11:26:30.393Z,15.30
2018-06-09T11:27:30.400Z,15.20
2018-06-09T11:28:30.405Z,15.30
2018-06-09T11:29:30.406Z,14.00
2018-06-09T11:30:30.412Z,15.10
2018-06-09T11:31:30.413Z,15.50
2018-06-09T11:32:30.416Z,14.40
2018-06-09T11:33:30.423Z,15.80
2018-06-09T11:34:30.423Z,15.20
2018-06-09T11:35:30.426Z,16.40
2018-06-09T11:36:30.432Z,14.70
2018-06-09T11:37:30.434Z,16.00
2018-06-09T11:38:30.436Z,15.10
2018-06-09T11:39:30.442Z,15.90
2018-06-09T11:40:30.445Z,15.10
2018-06-09T11:41:30.452Z,15.20
2018-06-09T11:42:30.450Z,15.70
2018-06-09T11:43:30.458Z,14.20
2018-06-09T11:44:30.463Z,14.50
2018-06-09T11:45:30.462Z,15.60
2018-06-09T11:46:30.469Z,14.00
2018-06-09T11:47:30.470Z,14.60
2018-06-09T11:48:30.474Z,13.70
2018-06-09T11:49:30.478Z,15.90
2018-06-09T11:50:30.484Z,16.80
2018-06-09T11:51:30.488Z,17.80
2018-06-09T11:52:30.492Z,15.70
2018-06-09T11:53:30.492Z,16.40
2018-06-09T11:54:30.499Z,15.00
2018-06-09T11:55:30.502Z,15.00
2018-06-09T11:56:30.503Z,16.60
2018-06-09T11:57:30.513Z,17.10
2018-06-09T11:58:30.510Z,16.50
2018-06-09T11:59:30.514Z,16.10
2018-06-09T12:00:30.525Z,16.60
2018-06-09T12:01:30.522Z,14.70
2018-06-09T12:02:30.525Z,15.60
2018-06-09T12:03:30.531Z,16.40
2018-06-09T12:04:30.533Z,16.70
2018-06-09T12:05:30.556Z,15.30
2018-06-09T12:06:30.540Z,16.40
2018-06-09T12:07:30.546Z,16.80
2018-06-09T12:08:30.550Z,17.20
2018-06-09T12:09:30.553Z,14.90
2018-06-09T12:10:30.556Z,15.90
2018-06-09T12:11:30.564Z,19.00
2018-06-09T12:12:30.567Z,16.30
2018-06-09T12:13:30.569Z,15.80
2018-06-09T12:14:30.573Z,16.90
2018-06-09T12:15:30.577Z,16.90
2018-06-09T12:16:30.582Z,17.70
2018-06-09T12:17:30.586Z,16.50
2018-06-09T12:18:30.590Z,17.10
2018-06-09T12:19:30.597Z,16.80
2018-06-09T12:20:30.599Z,16.30
2018-06-09T12:21:30.610Z,17.20
2018-06-09T12:22:30.608Z,16.90
2018-06-09T12:23:30.614Z,16.20
2018-06-09T12:24:30.618Z,16.30
2018-06-09T12:25:30.624Z,15.80
2018-06-09T12:26:30.628Z,16.50
2018-06-09T12:27:30.634Z,17.20
2018-06-09T12:28:30.647Z,16.50
2018-06-09T12:29:30.848Z,17.70
2018-06-09T12:30:30.653Z,14.50
2018-06-09T12:31:30.656Z,17.00
2018-06-09T12:32:30.679Z,17.40
2018-06-09T12:33:30.671Z,15.30
2018-06-09T12:34:30.672Z,15.10
2018-06-09T12:35:30.679Z,14.30
2018-06-09T12:36:30.689Z,15.40
2018-06-09T12:37:30.690Z,15.00
2018-06-09T12:38:30.698Z,14.90
2018-06-09T12:39:30.704Z,15.80
2018-06-09T12:40:30.713Z,14.80
2018-06-09T12:41:30.712Z,15.00
2018-06-09T12:42:30.720Z,15.60
2018-06-09T12:43:30.929Z,16.90
2018-06-09T12:44:30.728Z,15.40
2018-06-09T12:45:30.739Z,15.70
2018-06-09T12:46:30.941Z,16.30
2018-06-09T12:47:30.743Z,16.90
2018-06-09T12:48:30.766Z,15.00
2018-06-09T12:49:30.958Z,16.20
2018-06-09T12:50:30.756Z,15.10
2018-06-09T12:51:30.764Z,16.60
2018-06-09T12:52:30.765Z,15.40
2018-06-09T12:53:30.769Z,16.00
2018-06-09T12:54:30.774Z,16.50
2018-06-09T12:55:30.778Z,16.70
2018-06-09T12:56:30.783Z,15.40
2018-06-09T12:57:30.788Z,16.00
2018-06-09T12:58:30.794Z,15.30